Terminal Aerodrome Forecast
Issued by NWS

Home | Current Version | Previous Version | Text Only | Print | Product List | Glossary On
Versions: 1 2 3 4 5 6 7 8 9 10 11 12 13 14 15 16
000
FTUS43 KPAH 141000 AAC
TAFOWB
TAF AMD
KOWB 141000Z 1410/1506 19010G20KT 4SM -SHRA BR FEW001 SCT015 BKN035
      TEMPO 1410/1413 2SM SHRA BR BKN015
     FM141300 21012G20KT P6SM VCSH OVC050
     FM141600 25012G22KT P6SM OVC025
     FM142100 30016G26KT 5SM -RA BR OVC015=

USA.gov is the U.S. government's official web portal to all federal, state and local government web resources and services.